»·PEaware :: UPS1014 KDEN-KLAS

UPS1014 :: KDEN-KLAS

FLIGHT INFORMATION

Flight Status: Arrived
Operator:
United Parcel Service
More flights by this operator :: More flights under this callsign
Pilot: Jim M. (18055)
Aircraft: BOEING 747-400 (WINGLETS)
(B744)
More flights by this aircraft type
Origin: KDEN Denver Intl
United States
Destination: KLAS McCarran Intl
United States
More flights between these airports :: More routes between these airports
Route: CONNR7 WERNR ZAKRY GGAPP SITEE4
File this flight plan on PilotEdge
Remarks:
Altitude:
(Current/Filed)
36,000ft
Speed:
(Current/Filed)
450kts
Departed: 22-Oct-20 01:30 PM
Arrived: 22-Oct-20 02:54 PM
Distance/Time
Traveled:
544nm/1:24
Distance/Time
To Go:
Arrived

Flight Plot

Page will automatically refresh every two minutes.

Flight plan parsing failed; only flown route is shown


Map Options




Map Legend


Flown Route
Filed Route
Departure Airport
Arrival Airport
Navaid (VOR, NDB)
Fix

Horizontal Profiles

Position Reports

Time Latitude Longitude Heading Altitude Ground
Speed
22-Oct-20 12:32 39.830904 -104.674256 359 5444ft 0kts
22-Oct-20 12:33 39.830904 -104.674256 359 5444ft 0kts
22-Oct-20 12:34 39.830904 -104.674256 359 5444ft 0kts
22-Oct-20 12:35 39.830904 -104.674256 359 5444ft 0kts
22-Oct-20 12:36 39.830904 -104.674256 359 5444ft 0kts
22-Oct-20 12:37 39.830904 -104.674256 359 5444ft 0kts
22-Oct-20 12:38 39.830904 -104.674256 359 5444ft 0kts
22-Oct-20 12:39 39.830904 -104.674256 359 5444ft 0kts
22-Oct-20 12:40 39.830904 -104.674256 359 5444ft 0kts
22-Oct-20 12:41 39.830904 -104.674256 359 5444ft 0kts
22-Oct-20 12:42 39.830904 -104.674256 359 5444ft 0kts
22-Oct-20 12:43 39.830904 -104.674256 359 5444ft 0kts
22-Oct-20 12:44 39.830904 -104.674256 359 5444ft 0kts
22-Oct-20 12:45 39.830904 -104.674256 359 5444ft 0kts
22-Oct-20 12:46 39.830904 -104.674256 359 5444ft 0kts
22-Oct-20 12:47 39.830904 -104.674256 359 5444ft 0kts
22-Oct-20 12:48 39.830904 -104.674256 359 5444ft 0kts
22-Oct-20 12:49 39.830904 -104.674256 359 5444ft 0kts
22-Oct-20 12:50 39.830904 -104.674256 359 5444ft 0kts
22-Oct-20 12:51 39.830904 -104.674256 359 5444ft 0kts
22-Oct-20 12:52 39.830904 -104.674256 359 5444ft 0kts
22-Oct-20 12:53 39.830904 -104.674256 359 5444ft 0kts
22-Oct-20 12:54 39.830904 -104.674256 359 5444ft 0kts
22-Oct-20 12:55 39.830904 -104.674256 359 5444ft 0kts
22-Oct-20 12:56 39.830904 -104.674256 359 5444ft 0kts
22-Oct-20 12:57 39.830904 -104.674256 359 5444ft 0kts
22-Oct-20 12:58 39.830904 -104.674256 359 5444ft 0kts
22-Oct-20 12:59 39.830904 -104.674256 359 5444ft 0kts
22-Oct-20 13:00 39.830904 -104.674256 359 5444ft 0kts
22-Oct-20 13:01 39.830904 -104.674256 359 5444ft 0kts
22-Oct-20 13:02 39.830904 -104.674256 359 5444ft 0kts
22-Oct-20 13:03 39.830904 -104.674256 359 5444ft 0kts
22-Oct-20 13:04 39.830904 -104.674256 359 5444ft 0kts
22-Oct-20 13:05 39.830904 -104.674256 359 5444ft 0kts
22-Oct-20 13:06 39.830904 -104.674256 359 5444ft 0kts
22-Oct-20 13:07 39.830904 -104.674256 359 5444ft 0kts
22-Oct-20 13:08 39.830904 -104.674256 359 5444ft 0kts
22-Oct-20 13:09 39.830904 -104.674256 359 5444ft 0kts
22-Oct-20 13:10 39.830904 -104.674256 359 5444ft 0kts
22-Oct-20 13:11 39.830904 -104.674256 359 5444ft 0kts
22-Oct-20 13:12 39.830904 -104.674256 359 5444ft 0kts
22-Oct-20 13:13 39.830904 -104.674256 359 5444ft 0kts
22-Oct-20 13:14 39.830812 -104.674255 359 5444ft 2kts
22-Oct-20 13:15 39.830218 -104.674460 57 5444ft 2kts
22-Oct-20 13:16 39.830159 -104.674645 78 5444ft 0kts
22-Oct-20 13:17 39.830159 -104.674645 78 5444ft 0kts
22-Oct-20 13:18 39.830173 -104.674551 80 5444ft 2kts
22-Oct-20 13:19 39.829712 -104.672172 115 5444ft 7kts
22-Oct-20 13:20 39.828491 -104.670583 100 5444ft 6kts
22-Oct-20 13:21 39.828426 -104.669035 91 5444ft 0kts
22-Oct-20 13:22 39.828426 -104.669034 91 5444ft 0kts
22-Oct-20 13:23 39.828424 -104.668933 91 5444ft 1kts
22-Oct-20 13:24 39.828399 -104.666993 89 5444ft 6kts
22-Oct-20 13:25 39.828403 -104.664341 90 5444ft 7kts
22-Oct-20 13:26 39.828391 -104.662853 90 5444ft 0kts
22-Oct-20 13:27 39.828391 -104.662853 90 5444ft 0kts
22-Oct-20 13:28 39.828379 -104.661226 85 5444ft 8kts
22-Oct-20 13:29 39.843468 -104.660350 2 5464ft 169kts
22-Oct-20 13:30 39.874179 -104.703747 273 7774ft 235kts
22-Oct-20 13:31 39.861161 -104.799106 257 9514ft 286kts
22-Oct-20 13:32 39.843303 -104.902597 257 12195ft 327kts
22-Oct-20 13:33 39.818377 -105.029423 255 14700ft 376kts
22-Oct-20 13:34 39.791105 -105.163786 255 18243ft 392kts
22-Oct-20 13:35 39.762714 -105.303821 255 21320ft 408kts
22-Oct-20 13:36 39.733058 -105.448732 255 24183ft 422kts
22-Oct-20 13:37 39.702250 -105.598853 255 26654ft 438kts
22-Oct-20 13:38 39.675668 -105.756057 259 28710ft 451kts
22-Oct-20 13:39 39.654318 -105.914121 258 31214ft 442kts
22-Oct-20 13:40 39.632517 -106.070315 257 33183ft 438kts
22-Oct-20 13:41 39.611387 -106.225210 257 34926ft 434kts
22-Oct-20 13:42 39.590158 -106.378995 257 36117ft 433kts
22-Oct-20 13:43 39.568068 -106.532380 257 36048ft 433kts
22-Oct-20 13:45 39.543449 -106.685145 251 35961ft 432kts
22-Oct-20 13:46 39.498627 -106.829271 248 35947ft 432kts
22-Oct-20 13:47 39.453303 -106.973468 247 35976ft 432kts
22-Oct-20 13:48 39.407442 -107.117537 248 36037ft 432kts
22-Oct-20 13:49 39.360900 -107.260464 246 36116ft 431kts
22-Oct-20 13:50 39.311336 -107.401549 246 36137ft 431kts
22-Oct-20 13:51 39.261833 -107.542558 246 36075ft 430kts
22-Oct-20 13:52 39.212998 -107.683143 247 36019ft 430kts
22-Oct-20 13:53 39.163884 -107.824070 246 35916ft 432kts
22-Oct-20 13:54 39.114130 -107.965348 246 35907ft 432kts
22-Oct-20 13:55 39.064276 -108.106072 247 35891ft 433kts
22-Oct-20 13:56 39.014001 -108.247291 246 35891ft 434kts
22-Oct-20 13:57 38.963492 -108.388475 246 35885ft 435kts
22-Oct-20 13:58 38.912607 -108.530023 246 35884ft 436kts
22-Oct-20 13:59 38.861601 -108.671237 246 35884ft 436kts
22-Oct-20 14:00 38.810312 -108.812556 246 35883ft 440kts
22-Oct-20 14:00 38.767004 -108.931363 246 35888ft 440kts
22-Oct-20 14:02 38.706348 -109.096967 246 35899ft 440kts
22-Oct-20 14:02 38.662786 -109.215337 246 35895ft 440kts
22-Oct-20 14:04 38.601551 -109.380948 246 35878ft 442kts
22-Oct-20 14:04 38.557677 -109.499044 246 35874ft 443kts
22-Oct-20 14:05 38.504566 -109.641386 246 35868ft 445kts
22-Oct-20 14:06 38.451009 -109.784246 246 35876ft 446kts
22-Oct-20 14:07 38.397126 -109.927303 246 35883ft 447kts
22-Oct-20 14:08 38.343113 -110.070031 246 35889ft 448kts
22-Oct-20 14:09 38.288715 -110.213101 246 35891ft 448kts
22-Oct-20 14:10 38.234166 -110.355901 246 35888ft 447kts
22-Oct-20 14:11 38.179554 -110.498200 246 35884ft 447kts
22-Oct-20 14:12 38.125089 -110.639462 246 35883ft 446kts
22-Oct-20 14:13 38.070310 -110.780887 246 35899ft 445kts
22-Oct-20 14:14 38.015332 -110.922176 246 35909ft 446kts
22-Oct-20 14:15 37.960089 -111.063504 246 35920ft 450kts
22-Oct-20 14:16 37.904131 -111.206005 246 35988ft 453kts
22-Oct-20 14:17 37.847837 -111.348709 246 36021ft 452kts
22-Oct-20 14:18 37.791428 -111.491054 246 36043ft 452kts
22-Oct-20 14:19 37.735018 -111.632757 246 36063ft 451kts
22-Oct-20 14:20 37.678597 -111.773921 246 36075ft 451kts
22-Oct-20 14:21 37.621989 -111.915571 245 36098ft 451kts
22-Oct-20 14:22 37.565025 -112.056192 245 36106ft 451kts
22-Oct-20 14:23 37.505100 -112.195485 241 36102ft 452kts
22-Oct-20 14:24 37.439131 -112.330840 241 36088ft 454kts
22-Oct-20 14:25 37.373448 -112.466458 241 36056ft 455kts
22-Oct-20 14:26 37.307970 -112.603038 242 36043ft 456kts
22-Oct-20 14:27 37.242126 -112.739286 241 36040ft 457kts
22-Oct-20 14:28 37.175865 -112.875507 241 36043ft 458kts
22-Oct-20 14:29 37.109132 -113.012094 241 36046ft 458kts
22-Oct-20 14:30 37.042389 -113.148138 241 36033ft 454kts
22-Oct-20 14:31 36.977952 -113.278961 241 34169ft 462kts
22-Oct-20 14:32 36.909844 -113.416680 241 30885ft 464kts
22-Oct-20 14:33 36.841951 -113.553407 241 27792ft 457kts
22-Oct-20 14:34 36.775890 -113.685914 240 25149ft 442kts
22-Oct-20 14:35 36.712032 -113.814222 240 22605ft 428kts
22-Oct-20 14:36 36.649660 -113.938047 240 20126ft 415kts
22-Oct-20 14:37 36.589068 -114.057808 239 17657ft 402kts
22-Oct-20 14:38 36.530799 -114.172975 239 15433ft 387kts
22-Oct-20 14:39 36.473655 -114.284471 238 13121ft 378kts
22-Oct-20 14:40 36.420743 -114.387228 238 12455ft 327kts
22-Oct-20 14:41 36.375029 -114.476100 238 11786ft 291kts
22-Oct-20 14:42 36.331467 -114.560674 237 10815ft 288kts
22-Oct-20 14:43 36.282242 -114.634877 210 9941ft 275kts
22-Oct-20 14:44 36.211569 -114.668110 199 9236ft 270kts
22-Oct-20 14:45 36.141043 -114.698217 200 8591ft 267kts
22-Oct-20 14:46 36.079397 -114.732809 236 7854ft 233kts
22-Oct-20 14:47 36.073314 -114.811721 268 6720ft 234kts
22-Oct-20 14:48 36.073856 -114.884531 266 5946ft 185kts
22-Oct-20 14:49 36.073821 -114.943617 267 5043ft 169kts
22-Oct-20 14:50 36.073771 -115.001841 267 4126ft 169kts
22-Oct-20 14:51 36.073727 -115.059802 268 3235ft 170kts
22-Oct-20 14:52 36.073662 -115.118307 270 2330ft 168kts
22-Oct-20 14:53 36.073679 -115.147051 275 2194ft 20kts
22-Oct-20 14:54 36.074384 -115.149828 296 2194ft 12kts
22-Oct-20 14:55 36.074611 -115.150386 297 2194ft 0kts
22-Oct-20 14:56 36.077312 -115.152559 333 2194ft 7kts
22-Oct-20 14:57 36.077834 -115.152879 333 2194ft 11kts
22-Oct-20 14:58 36.078740 -115.150335 92 2194ft 10kts
22-Oct-20 14:59 36.078473 -115.146254 95 2194ft 13kts
22-Oct-20 15:00 36.078262 -115.141433 89 2194ft 13kts
22-Oct-20 15:01 36.078284 -115.135346 90 2194ft 17kts
22-Oct-20 15:02 36.078289 -115.130180 89 2194ft 12kts
22-Oct-20 15:03 36.078371 -115.126559 54 2194ft 4kts
22-Oct-20 15:04 36.081443 -115.126482 0 2194ft 3kts
22-Oct-20 15:05 36.081820 -115.126482 2 2194ft 0kts
22-Oct-20 15:06 36.082356 -115.125842 84 2194ft 2kts
22-Oct-20 15:07 36.082366 -115.125703 86 2194ft 0kts
22-Oct-20 15:08 36.082366 -115.125703 86 2194ft 0kts

Navigation Log

Ident Type
Flight plan parsing failed, navigation log unavailable